Time;durP1;ratioP1;P1;durP2;ratioP2;P2;SDS_P1;SDS_P2;PMS_P1;PMS_P2;Temp;Humidity;BMP_temperature;BMP_pressure;BME280_temperature;BME280_humidity;BME280_pressure;Samples;Min_cycle;Max_cycle;Signal;HPM_P1;HPM_P2
2022/05/26 00:01:56;;;;;;;1.43;1.10;;;;;;;;;;5021496;28;20643;-69
2022/05/26 00:04:22;;;;;;;4.67;1.17;;;;;;;;;;5020758;28;20277;-69
2022/05/26 00:06:49;;;;;;;2.70;1.07;;;;;;;;;;5021891;28;20656;-70
2022/05/26 00:09:15;;;;;;;2.40;1.10;;;;;;;;;;5025205;28;20279;-69
2022/05/26 00:11:41;;;;;;;1.53;1.20;;;;;;;;;;5025314;28;20187;-70
2022/05/26 00:14:09;;;;;;;1.30;1.00;;;;;;;;;;5024971;28;20194;-70
2022/05/26 00:16:38;;;;;;;1.67;0.90;;;;;;;;;;5021928;28;20188;-69
2022/05/26 00:19:04;;;;;;;2.40;0.90;;;;;;;;;;5031263;28;20277;-69
2022/05/26 00:21:30;;;;;;;3.17;1.20;;;;;;;;;;5017973;28;20202;-70
2022/05/26 00:23:57;;;;;;;1.37;0.90;;;;;;;;;;5021055;28;20170;-70
2022/05/26 00:26:23;;;;;;;2.03;1.20;;;;;;;;;;5027523;28;20178;-70
2022/05/26 00:28:50;;;;;;;1.88;1.00;;;;;;;;;;5031211;28;20441;-69
2022/05/26 00:31:16;;;;;;;1.73;0.90;;;;;;;;;;5020217;28;20190;-70
2022/05/26 00:33:42;;;;;;;1.80;0.90;;;;;;;;;;5032878;28;20190;-69
2022/05/26 00:36:11;;;;;;;3.37;1.00;;;;;;;;;;5024125;28;20190;-69
2022/05/26 00:38:38;;;;;;;2.13;0.97;;;;;;;;;;5030297;28;20221;-69
2022/05/26 00:41:09;;;;;;;1.50;1.00;;;;;;;;;;5030488;28;20182;-70
2022/05/26 00:43:36;;;;;;;2.10;0.90;;;;;;;;;;5028495;28;20176;-69
2022/05/26 00:46:05;;;;;;;1.63;0.90;;;;;;;;;;5033643;28;20333;-68
2022/05/26 00:48:35;;;;;;;1.47;0.80;;;;;;;;;;5028232;28;20220;-69
2022/05/26 00:51:02;;;;;;;1.30;1.00;;;;;;;;;;5027331;28;20623;-69
2022/05/26 00:53:43;;;;;;;1.40;0.87;;;;;;;;;;5029819;28;20331;-69
2022/05/26 00:56:15;;;;;;;0.80;0.80;;;;;;;;;;5023372;28;20190;-68
2022/05/26 00:58:42;;;;;;;1.43;0.87;;;;;;;;;;5029203;28;20202;-68
2022/05/26 01:01:08;;;;;;;2.10;1.00;;;;;;;;;;5025857;28;20344;-69
2022/05/26 01:03:39;;;;;;;2.40;0.90;;;;;;;;;;5031847;28;20174;-69
2022/05/26 01:06:11;;;;;;;2.93;0.90;;;;;;;;;;5020278;28;20257;-69
2022/05/26 01:08:42;;;;;;;1.30;0.90;;;;;;;;;;5029758;28;20223;-69
2022/05/26 01:11:09;;;;;;;2.90;0.90;;;;;;;;;;5026873;28;20205;-69
2022/05/26 01:13:39;;;;;;;1.93;0.90;;;;;;;;;;5023652;28;20262;-69
2022/05/26 01:16:10;;;;;;;0.70;0.70;;;;;;;;;;5032566;28;20214;-69
2022/05/26 01:18:42;;;;;;;2.73;1.00;;;;;;;;;;5025080;28;20670;-68
2022/05/26 01:21:13;;;;;;;1.43;0.90;;;;;;;;;;5023868;28;20185;-69
2022/05/26 01:23:58;;;;;;;1.40;0.97;;;;;;;;;;5022173;28;20191;-69
2022/05/26 01:26:36;;;;;;;1.30;1.10;;;;;;;;;;5019455;28;20183;-69
2022/05/26 01:29:14;;;;;;;3.63;3.33;;;;;;;;;;5027003;28;20252;-69
2022/05/26 01:31:48;;;;;;;1.80;1.70;;;;;;;;;;5035324;28;20190;-69
2022/05/26 01:34:28;;;;;;;2.87;1.10;;;;;;;;;;5026257;28;20174;-69
2022/05/26 01:37:03;;;;;;;1.20;1.10;;;;;;;;;;5026294;28;20216;-69
2022/05/26 01:39:50;;;;;;;1.83;0.90;;;;;;;;;;5020889;28;21024;-69
2022/05/26 01:42:25;;;;;;;1.10;0.90;;;;;;;;;;5020614;28;20178;-69
2022/05/26 01:45:07;;;;;;;1.93;1.10;;;;;;;;;;5015276;28;20199;-69
2022/05/26 01:47:44;;;;;;;1.07;0.87;;;;;;;;;;5024926;28;20186;-69
2022/05/26 01:50:15;;;;;;;2.27;0.90;;;;;;;;;;5019151;28;20210;-69
2022/05/26 01:52:51;;;;;;;1.60;0.90;;;;;;;;;;5026146;28;20186;-68
2022/05/26 01:55:26;;;;;;;0.90;0.80;;;;;;;;;;5025459;28;20183;-69
2022/05/26 01:57:54;;;;;;;2.17;0.90;;;;;;;;;;5026716;28;20204;-70
2022/05/26 02:00:21;;;;;;;2.20;1.00;;;;;;;;;;5021682;28;20213;-69
2022/05/26 02:02:47;;;;;;;1.17;0.83;;;;;;;;;;5018399;28;20191;-69
2022/05/26 02:05:15;;;;;;;1.97;0.80;;;;;;;;;;5027158;28;20182;-70
2022/05/26 02:07:44;;;;;;;2.13;1.00;;;;;;;;;;5025985;28;20190;-70
2022/05/26 02:10:14;;;;;;;1.10;0.90;;;;;;;;;;5025438;28;20264;-70
2022/05/26 02:12:41;;;;;;;1.40;0.80;;;;;;;;;;5026842;28;20183;-70
2022/05/26 02:15:12;;;;;;;2.20;0.90;;;;;;;;;;5025203;28;20189;-70
2022/05/26 02:17:58;;;;;;;0.70;0.70;;;;;;;;;;5025565;28;20271;-70
2022/05/26 02:20:28;;;;;;;1.33;0.80;;;;;;;;;;5025327;28;20230;-70
2022/05/26 02:22:54;;;;;;;3.00;0.90;;;;;;;;;;5025506;28;20183;-70
2022/05/26 02:25:22;;;;;;;1.43;1.00;;;;;;;;;;5024744;28;20174;-70
2022/05/26 02:27:52;;;;;;;0.93;0.80;;;;;;;;;;5025381;28;20206;-70
2022/05/26 02:30:21;;;;;;;2.00;0.80;;;;;;;;;;5026178;28;20352;-70
2022/05/26 02:32:51;;;;;;;0.90;0.73;;;;;;;;;;5022610;28;20243;-70
2022/05/26 02:35:28;;;;;;;1.30;0.90;;;;;;;;;;5029268;28;20216;-70
2022/05/26 02:38:07;;;;;;;0.97;0.73;;;;;;;;;;5025214;28;20297;-70
2022/05/26 02:40:33;;;;;;;1.60;0.90;;;;;;;;;;5022279;28;20228;-70
2022/05/26 02:43:10;;;;;;;5.13;1.00;;;;;;;;;;5027157;28;20202;-70
2022/05/26 02:45:48;;;;;;;1.20;0.80;;;;;;;;;;5016027;28;20191;-70
2022/05/26 02:48:34;;;;;;;1.47;0.73;;;;;;;;;;5026139;28;20217;-70
2022/05/26 02:51:01;;;;;;;1.80;0.80;;;;;;;;;;5022972;28;20182;-70
2022/05/26 02:53:46;;;;;;;0.97;0.87;;;;;;;;;;5026447;28;20564;-70
2022/05/26 02:56:12;;;;;;;1.13;0.67;;;;;;;;;;5019245;28;20237;-70
2022/05/26 02:58:49;;;;;;;2.00;0.90;;;;;;;;;;5024260;28;20284;-70
2022/05/26 03:01:20;;;;;;;1.37;0.83;;;;;;;;;;5024884;28;20214;-70
2022/05/26 03:03:52;;;;;;;1.60;0.87;;;;;;;;;;5025270;28;20540;-70
2022/05/26 03:06:27;;;;;;;1.13;0.80;;;;;;;;;;5016496;28;20240;-70
2022/05/26 03:08:53;;;;;;;0.97;0.80;;;;;;;;;;5025089;28;20556;-70
2022/05/26 03:11:22;;;;;;;2.87;0.90;;;;;;;;;;5024571;28;20187;-70
2022/05/26 03:13:50;;;;;;;1.30;0.80;;;;;;;;;;5022404;28;20290;-70
2022/05/26 03:16:16;;;;;;;0.80;0.80;;;;;;;;;;5020686;28;20186;-70
2022/05/26 03:18:42;;;;;;;0.60;0.60;;;;;;;;;;5022173;28;20297;-70
2022/05/26 03:21:09;;;;;;;0.80;0.80;;;;;;;;;;5023268;28;20209;-70
2022/05/26 03:23:36;;;;;;;2.27;0.90;;;;;;;;;;5024641;28;20733;-70
2022/05/26 03:26:03;;;;;;;0.80;0.70;;;;;;;;;;5022372;28;20187;-70
2022/05/26 03:28:30;;;;;;;1.13;0.80;;;;;;;;;;5026325;28;20225;-70
2022/05/26 03:30:56;;;;;;;1.13;0.80;;;;;;;;;;5021199;28;20297;-70
2022/05/26 03:33:23;;;;;;;1.67;0.83;;;;;;;;;;5023289;28;20209;-70
2022/05/26 03:41:23;;;;;;;2.13;1.00;;;;;;;;;;5025262;28;20170;-70
2022/05/26 03:43:52;;;;;;;1.93;0.80;;;;;;;;;;5022088;28;20176;-70
2022/05/26 03:46:18;;;;;;;3.10;0.80;;;;;;;;;;5018529;28;20187;-70
2022/05/26 03:48:44;;;;;;;1.30;0.87;;;;;;;;;;5025972;28;20276;-69
2022/05/26 03:51:13;;;;;;;1.07;0.80;;;;;;;;;;5025305;28;20191;-70
2022/05/26 03:53:39;;;;;;;3.20;0.90;;;;;;;;;;5025477;28;20561;-70
2022/05/26 03:56:06;;;;;;;1.17;0.80;;;;;;;;;;5025380;28;20513;-69
2022/05/26 03:58:33;;;;;;;2.17;0.83;;;;;;;;;;5022939;28;20249;-69
2022/05/26 04:01:06;;;;;;;1.63;0.90;;;;;;;;;;5021084;28;20219;-69
2022/05/26 04:03:32;;;;;;;2.33;1.00;;;;;;;;;;5025557;28;20178;-70
2022/05/26 04:05:58;;;;;;;3.63;0.90;;;;;;;;;;5021195;28;20237;-70
2022/05/26 04:08:24;;;;;;;2.00;0.90;;;;;;;;;;5020164;28;20187;-70
2022/05/26 04:10:51;;;;;;;1.87;0.90;;;;;;;;;;5025426;28;20210;-70
2022/05/26 04:13:17;;;;;;;1.67;1.10;;;;;;;;;;5024999;28;20186;-70
2022/05/26 04:15:43;;;;;;;1.00;0.90;;;;;;;;;;5022656;28;20190;-71
2022/05/26 04:18:09;;;;;;;1.87;1.00;;;;;;;;;;5023694;28;20237;-71
2022/05/26 04:20:35;;;;;;;2.13;1.10;;;;;;;;;;5022719;28;20222;-71
2022/05/26 04:23:01;;;;;;;2.37;1.03;;;;;;;;;;5026487;28;20542;-70
2022/05/26 04:25:29;;;;;;;2.37;1.10;;;;;;;;;;5020505;28;20179;-71
2022/05/26 04:27:56;;;;;;;1.93;1.00;;;;;;;;;;5021450;28;20216;-74
2022/05/26 04:30:23;;;;;;;3.27;0.93;;;;;;;;;;5020206;28;20217;-72
2022/05/26 04:32:49;;;;;;;5.47;1.20;;;;;;;;;;5012465;28;20202;-72
2022/05/26 04:35:15;;;;;;;1.33;1.00;;;;;;;;;;5018575;28;20178;-72
2022/05/26 04:37:41;;;;;;;1.17;0.93;;;;;;;;;;5020889;28;20194;-72
2022/05/26 04:40:09;;;;;;;0.90;0.90;;;;;;;;;;5022417;28;20191;-72
2022/05/26 04:42:36;;;;;;;1.73;1.10;;;;;;;;;;5024004;28;20210;-72
2022/05/26 04:45:03;;;;;;;1.20;0.90;;;;;;;;;;5017834;28;20640;-72
2022/05/26 04:47:29;;;;;;;2.07;1.00;;;;;;;;;;5001625;28;20676;-72
2022/05/26 04:49:56;;;;;;;1.80;1.07;;;;;;;;;;5020154;28;20206;-71
2022/05/26 04:52:24;;;;;;;1.60;1.00;;;;;;;;;;5018278;28;20239;-73
2022/05/26 04:54:52;;;;;;;4.70;1.10;;;;;;;;;;5017322;28;20195;-72
2022/05/26 04:57:20;;;;;;;1.73;1.00;;;;;;;;;;5016015;28;20255;-72
2022/05/26 04:59:46;;;;;;;1.57;1.20;;;;;;;;;;5011181;28;20259;-72
2022/05/26 05:02:14;;;;;;;1.60;1.10;;;;;;;;;;5012602;28;20202;-71
2022/05/26 05:04:41;;;;;;;2.07;1.00;;;;;;;;;;5017550;28;20217;-72
2022/05/26 05:07:09;;;;;;;1.63;0.90;;;;;;;;;;5020057;28;20195;-72
2022/05/26 05:09:36;;;;;;;2.33;1.10;;;;;;;;;;5012599;28;20234;-72
2022/05/26 05:12:04;;;;;;;2.03;1.10;;;;;;;;;;5025478;28;20186;-73
2022/05/26 05:14:31;;;;;;;1.63;1.03;;;;;;;;;;5023544;28;20832;-70
2022/05/26 05:16:57;;;;;;;2.17;0.97;;;;;;;;;;5020383;28;20186;-70
2022/05/26 05:19:24;;;;;;;2.97;0.90;;;;;;;;;;5020598;28;20225;-70
2022/05/26 05:21:53;;;;;;;1.63;1.03;;;;;;;;;;5022767;28;20190;-70
2022/05/26 05:24:38;;;;;;;3.30;1.07;;;;;;;;;;5020675;28;20233;-71
2022/05/26 05:27:12;;;;;;;2.33;1.17;;;;;;;;;;5021688;28;20182;-71
2022/05/26 05:29:39;;;;;;;2.20;0.90;;;;;;;;;;5020337;28;20254;-71
2022/05/26 05:32:10;;;;;;;4.17;1.10;;;;;;;;;;5023943;28;20261;-74
2022/05/26 05:34:37;;;;;;;2.10;0.90;;;;;;;;;;5026780;28;20190;-73
2022/05/26 05:37:05;;;;;;;1.03;0.93;;;;;;;;;;5027448;28;20316;-71
2022/05/26 05:39:31;;;;;;;1.30;1.00;;;;;;;;;;5026793;28;20224;-71
2022/05/26 05:41:58;;;;;;;1.93;1.20;;;;;;;;;;5026323;28;20178;-72
2022/05/26 05:44:24;;;;;;;3.03;1.10;;;;;;;;;;5025880;28;20224;-72
2022/05/26 05:46:53;;;;;;;2.90;1.33;;;;;;;;;;5025221;28;20205;-72
2022/05/26 05:49:23;;;;;;;2.00;1.13;;;;;;;;;;5023674;28;20198;-72
2022/05/26 05:51:50;;;;;;;3.17;1.20;;;;;;;;;;5027779;28;20186;-72
2022/05/26 05:54:17;;;;;;;1.57;1.00;;;;;;;;;;5025338;28;20916;-72
2022/05/26 05:56:44;;;;;;;3.33;1.27;;;;;;;;;;5028693;28;20187;-72
2022/05/26 05:59:10;;;;;;;1.97;1.10;;;;;;;;;;5015907;28;20210;-73
2022/05/26 06:01:36;;;;;;;1.80;1.00;;;;;;;;;;5027116;28;20194;-77
2022/05/26 06:04:03;;;;;;;3.03;1.37;;;;;;;;;;5030542;28;20684;-78
2022/05/26 06:06:34;;;;;;;3.60;1.20;;;;;;;;;;5026380;28;20233;-77
2022/05/26 06:09:00;;;;;;;2.07;1.30;;;;;;;;;;5027328;28;20242;-76
2022/05/26 06:11:26;;;;;;;2.20;1.23;;;;;;;;;;5034086;28;20189;-77
2022/05/26 06:13:54;;;;;;;1.70;1.13;;;;;;;;;;5027882;28;20182;-73
2022/05/26 06:16:20;;;;;;;1.17;1.07;;;;;;;;;;5025668;28;20179;-73
2022/05/26 06:18:48;;;;;;;1.83;1.17;;;;;;;;;;5026943;28;20218;-73
2022/05/26 06:21:15;;;;;;;1.40;0.90;;;;;;;;;;5022189;28;20199;-73
2022/05/26 06:23:41;;;;;;;2.47;1.00;;;;;;;;;;5024014;28;20182;-73
2022/05/26 06:26:07;;;;;;;1.20;1.00;;;;;;;;;;5027452;28;20179;-73
2022/05/26 06:31:20;;;;;;;1.27;1.10;;;;;;;;;;5027106;28;20236;-73
2022/05/26 06:37:32;;;;;;;1.73;1.10;;;;;;;;;;5027049;28;20186;-73
2022/05/26 06:39:27;;;;;;;1.73;1.10;;;;;;;;;;5026627;28;20226;-73
2022/05/26 06:42:06;;;;;;;1.10;0.87;;;;;;;;;;5025698;28;20193;-74
2022/05/26 06:44:59;;;;;;;1.90;1.20;;;;;;;;;;5026168;28;20235;-73
2022/05/26 06:47:26;;;;;;;2.47;1.30;;;;;;;;;;5021164;28;20191;-73
2022/05/26 06:49:53;;;;;;;2.20;1.10;;;;;;;;;;5024096;28;20214;-73
2022/05/26 06:52:22;;;;;;;1.67;1.17;;;;;;;;;;5023834;28;20368;-73
2022/05/26 06:54:48;;;;;;;2.60;1.20;;;;;;;;;;5023440;28;20194;-73
2022/05/26 06:57:15;;;;;;;1.70;1.10;;;;;;;;;;5023827;28;20775;-73
2022/05/26 06:59:42;;;;;;;3.37;1.23;;;;;;;;;;5018074;28;20233;-73
2022/05/26 07:02:09;;;;;;;3.10;1.30;;;;;;;;;;5021930;28;20190;-73
2022/05/26 07:04:37;;;;;;;2.77;1.10;;;;;;;;;;5022442;28;20244;-73
2022/05/26 07:07:03;;;;;;;1.00;0.90;;;;;;;;;;5023958;28;20292;-73
2022/05/26 07:09:30;;;;;;;2.63;1.30;;;;;;;;;;5020412;28;20206;-73
2022/05/26 07:11:57;;;;;;;2.87;1.43;;;;;;;;;;5020820;28;20195;-73
2022/05/26 07:14:23;;;;;;;2.63;1.13;;;;;;;;;;5023052;28;20189;-73
2022/05/26 07:16:49;;;;;;;2.23;1.10;;;;;;;;;;5022075;28;20253;-73
2022/05/26 07:19:16;;;;;;;2.33;1.00;;;;;;;;;;5025710;28;20585;-73
2022/05/26 07:21:43;;;;;;;2.87;1.20;;;;;;;;;;5023443;28;20263;-71
2022/05/26 07:24:20;;;;;;;2.10;1.20;;;;;;;;;;5024515;28;20185;-72
2022/05/26 07:26:47;;;;;;;2.10;1.20;;;;;;;;;;5023443;28;20232;-72
2022/05/26 07:29:14;;;;;;;3.53;1.27;;;;;;;;;;5024523;28;20206;-73
2022/05/26 07:31:40;;;;;;;2.73;0.90;;;;;;;;;;5021943;28;20182;-73
2022/05/26 07:34:07;;;;;;;1.57;1.00;;;;;;;;;;5036909;28;20186;-73
2022/05/26 07:42:21;;;;;;;3.70;1.10;;;;;;;;;;5011802;28;20193;-73
2022/05/26 07:44:49;;;;;;;5.13;1.30;;;;;;;;;;5020887;28;20209;-73
2022/05/26 07:47:16;;;;;;;2.17;0.90;;;;;;;;;;5022509;28;20825;-73
2022/05/26 07:49:47;;;;;;;1.60;0.97;;;;;;;;;;5027372;28;20215;-73
2022/05/26 07:52:14;;;;;;;2.00;1.17;;;;;;;;;;5023063;28;20185;-73
2022/05/26 07:54:41;;;;;;;1.37;0.93;;;;;;;;;;5020555;28;20179;-73
2022/05/26 07:57:11;;;;;;;1.43;0.93;;;;;;;;;;5024072;28;20201;-73
2022/05/26 07:59:37;;;;;;;2.10;1.30;;;;;;;;;;5018693;28;20210;-73
2022/05/26 08:02:03;;;;;;;2.93;1.20;;;;;;;;;;4998517;28;20241;-73
2022/05/26 08:04:29;;;;;;;1.10;1.00;;;;;;;;;;5022825;28;20896;-73
2022/05/26 08:06:55;;;;;;;1.67;1.00;;;;;;;;;;5013965;28;20700;-73
2022/05/26 08:09:22;;;;;;;3.20;1.00;;;;;;;;;;5021624;28;20280;-73
2022/05/26 08:11:49;;;;;;;1.90;1.03;;;;;;;;;;5019775;28;20685;-73
2022/05/26 08:14:16;;;;;;;1.63;0.87;;;;;;;;;;5022478;28;20182;-75
2022/05/26 08:16:42;;;;;;;1.97;1.10;;;;;;;;;;5021292;28;20639;-75
2022/05/26 08:19:08;;;;;;;2.00;1.00;;;;;;;;;;5022512;28;20217;-73
2022/05/26 08:21:35;;;;;;;1.27;0.80;;;;;;;;;;5025307;28;20235;-73
2022/05/26 08:24:01;;;;;;;1.77;0.90;;;;;;;;;;5019191;28;20329;-73
2022/05/26 08:26:31;;;;;;;2.37;0.97;;;;;;;;;;5021394;28;20186;-73
2022/05/26 08:29:02;;;;;;;2.23;1.00;;;;;;;;;;5017608;28;20206;-73
2022/05/26 08:31:28;;;;;;;1.00;0.90;;;;;;;;;;5026792;28;20216;-73
2022/05/26 08:33:54;;;;;;;2.77;1.10;;;;;;;;;;5021908;28;20179;-73
2022/05/26 08:36:24;;;;;;;1.40;1.00;;;;;;;;;;5018806;28;20193;-73
2022/05/26 08:38:50;;;;;;;2.00;0.90;;;;;;;;;;5025920;28;20210;-73
2022/05/26 08:41:21;;;;;;;1.73;0.90;;;;;;;;;;5020613;28;20195;-73
2022/05/26 08:43:50;;;;;;;1.80;1.00;;;;;;;;;;5012001;28;20667;-73
2022/05/26 08:46:19;;;;;;;1.10;0.93;;;;;;;;;;5023825;28;20186;-73
2022/05/26 08:48:48;;;;;;;2.20;1.00;;;;;;;;;;5025008;28;20187;-73
2022/05/26 08:51:22;;;;;;;1.57;1.10;;;;;;;;;;5027093;28;20285;-73
2022/05/26 08:53:49;;;;;;;1.57;0.73;;;;;;;;;;5034737;28;20265;-73
2022/05/26 08:56:18;;;;;;;1.80;1.00;;;;;;;;;;5033541;28;20217;-73
2022/05/26 08:58:49;;;;;;;1.30;0.90;;;;;;;;;;5020943;28;20739;-73
2022/05/26 09:01:18;;;;;;;1.67;1.00;;;;;;;;;;5020078;28;20194;-73
2022/05/26 09:03:45;;;;;;;1.90;1.00;;;;;;;;;;5029919;28;20183;-73
2022/05/26 09:06:21;;;;;;;2.00;1.00;;;;;;;;;;5025143;28;20183;-73
2022/05/26 09:14:19;;;;;;;2.10;1.20;;;;;;;;;;5029113;28;20195;-73
2022/05/26 09:16:45;;;;;;;1.23;1.00;;;;;;;;;;5030612;28;20266;-73
2022/05/26 09:19:17;;;;;;;3.53;1.10;;;;;;;;;;5025985;28;20904;-73
2022/05/26 09:21:45;;;;;;;2.20;0.93;;;;;;;;;;5019610;28;20658;-73
2022/05/26 09:24:17;;;;;;;2.40;1.00;;;;;;;;;;5024681;28;20178;-73
2022/05/26 09:26:47;;;;;;;1.73;0.90;;;;;;;;;;5024540;28;20186;-73
2022/05/26 09:29:14;;;;;;;1.10;0.90;;;;;;;;;;5023048;28;20292;-73
2022/05/26 09:31:49;;;;;;;1.83;1.10;;;;;;;;;;5030647;28;20265;-73
2022/05/26 09:34:18;;;;;;;1.33;1.07;;;;;;;;;;5024102;28;20178;-73
2022/05/26 09:36:48;;;;;;;1.47;0.90;;;;;;;;;;5027783;28;20584;-73
2022/05/26 09:39:17;;;;;;;4.00;1.27;;;;;;;;;;5029441;28;20230;-73
2022/05/26 09:41:45;;;;;;;2.60;1.00;;;;;;;;;;5030701;28;20630;-73
2022/05/26 09:44:30;;;;;;;1.60;1.10;;;;;;;;;;5027927;28;20265;-73
2022/05/26 09:46:58;;;;;;;1.10;0.90;;;;;;;;;;5024813;28;20613;-73
2022/05/26 09:49:25;;;;;;;1.43;0.90;;;;;;;;;;5029286;28;20206;-73
2022/05/26 09:52:02;;;;;;;1.30;0.90;;;;;;;;;;5025786;28;20186;-73
2022/05/26 09:54:31;;;;;;;1.27;1.00;;;;;;;;;;5028642;28;20193;-73
2022/05/26 09:56:57;;;;;;;1.87;0.97;;;;;;;;;;5027915;28;20190;-73
2022/05/26 09:59:31;;;;;;;1.47;0.70;;;;;;;;;;5029429;28;20238;-73
2022/05/26 10:02:10;;;;;;;0.90;0.80;;;;;;;;;;5028389;28;20206;-74
2022/05/26 10:04:53;;;;;;;2.47;0.80;;;;;;;;;;5030677;28;20182;-73
2022/05/26 10:07:22;;;;;;;2.50;0.90;;;;;;;;;;5022471;28;20533;-73
2022/05/26 10:10:05;;;;;;;2.47;0.80;;;;;;;;;;5027945;28;20237;-73
2022/05/26 10:12:43;;;;;;;1.17;0.80;;;;;;;;;;5010500;28;20254;-73
2022/05/26 10:15:16;;;;;;;2.50;0.90;;;;;;;;;;5020082;28;20186;-73
2022/05/26 10:17:55;;;;;;;5.03;1.30;;;;;;;;;;5018311;28;20210;-73
2022/05/26 10:20:24;;;;;;;2.10;1.00;;;;;;;;;;5016314;28;20206;-73
2022/05/26 10:22:51;;;;;;;1.30;0.97;;;;;;;;;;5027477;28;20182;-74
2022/05/26 10:25:21;;;;;;;1.07;0.80;;;;;;;;;;5031034;28;20194;-73
2022/05/26 10:27:54;;;;;;;1.70;0.90;;;;;;;;;;5023648;28;20221;-73
2022/05/26 10:30:26;;;;;;;1.40;0.80;;;;;;;;;;5024650;28;20556;-73
2022/05/26 10:33:11;;;;;;;1.93;1.00;;;;;;;;;;5022004;28;20233;-73
2022/05/26 10:35:42;;;;;;;1.97;1.00;;;;;;;;;;5030914;28;20565;-73
2022/05/26 10:38:20;;;;;;;1.70;0.80;;;;;;;;;;5020962;28;20698;-73
2022/05/26 10:41:16;;;;;;;2.60;1.30;;;;;;;;;;5024035;28;22378;-73
2022/05/26 10:43:52;;;;;;;1.27;1.00;;;;;;;;;;5019033;28;20231;-73
2022/05/26 10:46:19;;;;;;;2.33;1.10;;;;;;;;;;5022905;28;20535;-73
2022/05/26 10:48:49;;;;;;;3.40;1.20;;;;;;;;;;5020026;28;20218;-73
2022/05/26 10:51:21;;;;;;;2.10;1.13;;;;;;;;;;5016270;28;20678;-73
2022/05/26 10:53:58;;;;;;;1.77;1.20;;;;;;;;;;5025447;28;20192;-73
2022/05/26 10:56:30;;;;;;;1.37;1.10;;;;;;;;;;5023671;28;20186;-73
2022/05/26 10:59:01;;;;;;;1.97;1.10;;;;;;;;;;5024107;28;20611;-72
2022/05/26 11:01:34;;;;;;;1.40;1.30;;;;;;;;;;5022555;28;20205;-72
2022/05/26 11:04:19;;;;;;;1.30;1.10;;;;;;;;;;5027885;28;20650;-72
2022/05/26 11:06:46;;;;;;;2.73;1.10;;;;;;;;;;5022300;28;20646;-72
2022/05/26 11:09:16;;;;;;;1.20;1.10;;;;;;;;;;5030009;28;20211;-73
2022/05/26 11:11:58;;;;;;;2.30;1.10;;;;;;;;;;5017555;28;20581;-73
2022/05/26 11:17:38;;;;;;;1.67;1.10;;;;;;;;;;5025475;28;20271;-73
2022/05/26 11:20:07;;;;;;;3.93;1.20;;;;;;;;;;5024722;28;20659;-73
2022/05/26 11:22:33;;;;;;;3.37;1.30;;;;;;;;;;5021565;28;20230;-74
2022/05/26 11:25:00;;;;;;;1.73;1.10;;;;;;;;;;5025402;28;20175;-75
2022/05/26 11:27:38;;;;;;;2.43;1.30;;;;;;;;;;5017080;28;20214;-73
2022/05/26 11:30:06;;;;;;;1.30;1.10;;;;;;;;;;5023164;28;20576;-75
2022/05/26 11:38:11;;;;;;;1.40;1.17;;;;;;;;;;5020710;28;20194;-74
2022/05/26 11:40:47;;;;;;;1.70;1.27;;;;;;;;;;5020981;28;20730;-77
2022/05/26 11:43:23;;;;;;;4.93;3.70;;;;;;;;;;5009137;28;20273;-78
2022/05/26 11:45:51;;;;;;;1.73;1.47;;;;;;;;;;5029807;28;20235;-78
2022/05/26 11:48:32;;;;;;;2.27;1.10;;;;;;;;;;5030482;28;20293;-78
2022/05/26 11:51:24;;;;;;;2.73;1.50;;;;;;;;;;5028079;28;20265;-77
2022/05/26 11:53:51;;;;;;;1.73;1.30;;;;;;;;;;5008408;28;20199;-77
2022/05/26 11:56:27;;;;;;;2.40;1.43;;;;;;;;;;5025003;28;20273;-77
2022/05/26 11:59:12;;;;;;;1.50;1.23;;;;;;;;;;5026103;28;20228;-78
2022/05/26 12:01:38;;;;;;;1.40;1.20;;;;;;;;;;5025735;28;20225;-77
2022/05/26 12:04:25;;;;;;;1.67;1.10;;;;;;;;;;5024581;28;20245;-77
2022/05/26 12:07:05;;;;;;;1.57;1.20;;;;;;;;;;5026671;28;20197;-77
2022/05/26 12:09:48;;;;;;;1.50;1.30;;;;;;;;;;5024568;28;20202;-77
2022/05/26 12:12:14;;;;;;;3.20;1.70;;;;;;;;;;5024721;28;20177;-77
2022/05/26 12:14:46;;;;;;;1.90;1.30;;;;;;;;;;5021777;28;20186;-77
2022/05/26 12:17:46;;;;;;;1.80;1.20;;;;;;;;;;5038807;28;20206;-80
2022/05/26 12:20:12;;;;;;;1.43;1.30;;;;;;;;;;5012512;28;20649;-72
2022/05/26 12:23:01;;;;;;;3.17;1.27;;;;;;;;;;5014495;28;20366;-72
2022/05/26 12:25:42;;;;;;;3.43;1.27;;;;;;;;;;5025684;28;20177;-76
2022/05/26 12:28:08;;;;;;;2.10;1.30;;;;;;;;;;5014940;28;20182;-72
2022/05/26 12:30:36;;;;;;;2.27;1.20;;;;;;;;;;5014209;28;20303;-72
2022/05/26 12:33:10;;;;;;;3.40;1.30;;;;;;;;;;5018625;28;20237;-72
2022/05/26 12:35:51;;;;;;;1.30;1.20;;;;;;;;;;5019127;28;20186;-72
2022/05/26 12:38:23;;;;;;;1.87;1.23;;;;;;;;;;5012955;28;22522;-72
2022/05/26 12:41:07;;;;;;;2.50;1.10;;;;;;;;;;5016260;28;20209;-72
2022/05/26 12:43:37;;;;;;;2.13;1.13;;;;;;;;;;5013380;28;20186;-72
2022/05/26 12:46:23;;;;;;;1.33;1.10;;;;;;;;;;5023930;28;20185;-72
2022/05/26 12:49:01;;;;;;;1.63;1.13;;;;;;;;;;5023487;28;20222;-72
2022/05/26 12:51:33;;;;;;;3.13;1.20;;;;;;;;;;5006146;28;20191;-72
2022/05/26 12:54:01;;;;;;;2.43;1.10;;;;;;;;;;5019583;28;20276;-73
2022/05/26 12:56:47;;;;;;;2.33;1.27;;;;;;;;;;5019194;28;20190;-73
2022/05/26 12:59:14;;;;;;;1.50;1.20;;;;;;;;;;5006373;28;20230;-72
2022/05/26 13:01:41;;;;;;;2.40;1.20;;;;;;;;;;5015694;28;20206;-74
2022/05/26 13:04:09;;;;;;;3.90;1.20;;;;;;;;;;5012656;28;20184;-74
2022/05/26 13:06:44;;;;;;;2.10;1.10;;;;;;;;;;5013788;28;20190;-73
2022/05/26 13:09:19;;;;;;;1.80;1.13;;;;;;;;;;5018019;28;20209;-73
2022/05/26 13:11:54;;;;;;;1.20;1.00;;;;;;;;;;5033689;28;20208;-73
2022/05/26 13:14:32;;;;;;;1.77;1.13;;;;;;;;;;5015594;28;20201;-73
2022/05/26 13:17:03;;;;;;;1.33;1.00;;;;;;;;;;5020450;28;20801;-73
2022/05/26 13:19:30;;;;;;;2.30;1.10;;;;;;;;;;5018237;28;21585;-73
2022/05/26 13:22:11;;;;;;;1.80;1.30;;;;;;;;;;5009898;28;20182;-73
2022/05/26 13:24:37;;;;;;;1.50;1.40;;;;;;;;;;5022514;28;20184;-72
2022/05/26 13:27:05;;;;;;;2.30;1.63;;;;;;;;;;5019217;28;20308;-73
2022/05/26 13:29:33;;;;;;;1.83;1.20;;;;;;;;;;5016484;28;20691;-72
2022/05/26 13:34:49;;;;;;;1.20;1.00;;;;;;;;;;5013817;28;20677;-73
2022/05/26 13:37:16;;;;;;;1.67;0.90;;;;;;;;;;5022084;28;20209;-72
2022/05/26 13:39:43;;;;;;;1.47;0.90;;;;;;;;;;5017707;28;20207;-72
2022/05/26 13:42:09;;;;;;;1.77;0.90;;;;;;;;;;5025137;28;20198;-72
2022/05/26 13:44:39;;;;;;;1.83;0.80;;;;;;;;;;5024733;28;20187;-73
2022/05/26 13:47:08;;;;;;;0.80;0.77;;;;;;;;;;5016149;28;20265;-73
2022/05/26 13:49:53;;;;;;;1.80;0.87;;;;;;;;;;5020468;28;20206;-73
2022/05/26 13:52:21;;;;;;;1.40;0.90;;;;;;;;;;5016080;28;20189;-73
2022/05/26 13:54:57;;;;;;;2.07;0.90;;;;;;;;;;5026507;28;20558;-73
2022/05/26 13:57:24;;;;;;;1.40;0.97;;;;;;;;;;5026791;28;20190;-73
2022/05/26 13:59:54;;;;;;;1.20;1.10;;;;;;;;;;5026553;28;20225;-73
2022/05/26 14:02:26;;;;;;;2.30;1.00;;;;;;;;;;5020128;28;20777;-73
2022/05/26 14:04:58;;;;;;;1.53;1.10;;;;;;;;;;5013248;28;20190;-73
2022/05/26 14:07:30;;;;;;;1.63;1.10;;;;;;;;;;5022460;28;20186;-73
2022/05/26 14:10:05;;;;;;;2.00;1.10;;;;;;;;;;5016175;28;20243;-73
2022/05/26 14:12:31;;;;;;;1.10;1.00;;;;;;;;;;5014436;28;20198;-73
2022/05/26 14:14:57;;;;;;;1.30;1.10;;;;;;;;;;5020781;28;20221;-73
2022/05/26 14:17:27;;;;;;;1.73;1.10;;;;;;;;;;5013096;28;20197;-73
2022/05/26 14:19:56;;;;;;;1.23;0.93;;;;;;;;;;5007786;28;20679;-73
2022/05/26 14:22:23;;;;;;;2.00;1.00;;;;;;;;;;5008970;28;20245;-72
2022/05/26 14:24:53;;;;;;;2.47;0.80;;;;;;;;;;5008639;28;20198;-73
2022/05/26 14:27:25;;;;;;;1.10;0.80;;;;;;;;;;5001834;28;20188;-72
2022/05/26 14:29:54;;;;;;;1.20;0.80;;;;;;;;;;4998219;28;20215;-72
2022/05/26 14:32:30;;;;;;;2.20;1.00;;;;;;;;;;5001597;28;20184;-76
2022/05/26 14:34:58;;;;;;;1.53;1.00;;;;;;;;;;5015516;28;20196;-72
2022/05/26 14:37:26;;;;;;;1.63;1.00;;;;;;;;;;5001334;28;20218;-72
2022/05/26 14:39:53;;;;;;;1.40;1.00;;;;;;;;;;5010620;28;20211;-73
2022/05/26 14:42:36;;;;;;;1.10;1.00;;;;;;;;;;5021228;28;20843;-72
2022/05/26 14:45:08;;;;;;;2.30;1.10;;;;;;;;;;5014166;28;20285;-72
2022/05/26 14:47:34;;;;;;;1.90;1.17;;;;;;;;;;5011834;28;20199;-72
2022/05/26 14:50:01;;;;;;;1.30;1.00;;;;;;;;;;5007558;28;20476;-71
2022/05/26 14:52:28;;;;;;;3.03;1.20;;;;;;;;;;4998777;28;20976;-74
2022/05/26 14:57:40;;;;;;;3.10;1.10;;;;;;;;;;5018289;28;20212;-72
2022/05/26 15:00:08;;;;;;;1.90;1.30;;;;;;;;;;5024283;28;20289;-72
2022/05/26 15:02:35;;;;;;;1.57;1.00;;;;;;;;;;5014443;28;20197;-72
2022/05/26 15:05:02;;;;;;;1.97;1.10;;;;;;;;;;5013548;28;22309;-72
2022/05/26 15:07:29;;;;;;;2.47;1.13;;;;;;;;;;5017505;28;20181;-76
2022/05/26 15:09:56;;;;;;;1.57;0.97;;;;;;;;;;5011232;28;20209;-76
2022/05/26 15:12:22;;;;;;;1.00;0.90;;;;;;;;;;5016150;28;20663;-76
2022/05/26 15:14:48;;;;;;;1.43;0.90;;;;;;;;;;5022686;28;20202;-76
2022/05/26 15:17:16;;;;;;;1.53;1.00;;;;;;;;;;5021495;28;20951;-76
2022/05/26 15:19:47;;;;;;;2.53;1.10;;;;;;;;;;5011530;28;20210;-76
2022/05/26 15:22:14;;;;;;;1.87;1.00;;;;;;;;;;5022924;28;20183;-77
2022/05/26 15:24:41;;;;;;;1.40;1.17;;;;;;;;;;5018295;28;20692;-76
2022/05/26 15:27:07;;;;;;;1.73;1.20;;;;;;;;;;5020647;28;20244;-76
2022/05/26 15:29:34;;;;;;;3.00;1.30;;;;;;;;;;5022959;28;20206;-76
2022/05/26 15:32:00;;;;;;;1.33;1.00;;;;;;;;;;5019886;28;20238;-76
2022/05/26 15:34:26;;;;;;;2.00;1.27;;;;;;;;;;5018992;28;20220;-76
2022/05/26 15:36:53;;;;;;;2.13;1.30;;;;;;;;;;5023244;28;20203;-75
2022/05/26 15:39:19;;;;;;;1.33;1.07;;;;;;;;;;5013742;28;20271;-75